Time;durP1;ratioP1;P1;durP2;ratioP2;P2;SDS_P1;SDS_P2;PMS_P1;PMS_P2;Temp;Humidity;BMP_temperature;BMP_pressure;BME280_temperature;BME280_humidity;BME280_pressure;Samples;Min_cycle;Max_cycle;Signal;HPM_P1;HPM_P2
2023/03/25 00:02:04;;;;;;;1.87;1.40;;;13.10;37.00;;;;;;10453647;28;20259;-73
2023/03/25 00:07:07;;;;;;;1.70;1.60;;;13.00;37.00;;;;;;10451688;28;20240;-72
2023/03/25 00:12:12;;;;;;;1.40;1.30;;;13.00;37.20;;;;;;10458933;28;20227;-72
2023/03/25 00:17:16;;;;;;;1.70;1.40;;;13.00;37.30;;;;;;10454379;28;20228;-71
2023/03/25 00:22:19;;;;;;;2.20;1.40;;;13.00;37.20;;;;;;10456276;28;20239;-71
2023/03/25 00:27:24;;;;;;;2.13;1.40;;;13.00;37.40;;;;;;10457607;28;20714;-71
2023/03/25 00:32:28;;;;;;;2.90;1.70;;;13.00;37.50;;;;;;10458941;28;20243;-71
2023/03/25 00:37:31;;;;;;;2.37;1.70;;;13.00;37.40;;;;;;10457290;28;20235;-72
2023/03/25 00:42:36;;;;;;;2.13;1.40;;;13.00;37.40;;;;;;10449160;28;20256;-71
2023/03/25 00:47:40;;;;;;;1.50;1.40;;;13.10;37.60;;;;;;10448576;28;20246;-72
2023/03/25 00:52:43;;;;;;;1.67;1.57;;;13.10;37.40;;;;;;10454080;28;20228;-71
2023/03/25 00:57:48;;;;;;;1.97;1.43;;;13.20;37.50;;;;;;10456699;28;20232;-71
2023/03/25 01:02:52;;;;;;;1.90;1.50;;;13.10;37.60;;;;;;10459401;28;20231;-71
2023/03/25 01:07:56;;;;;;;1.60;1.50;;;13.10;37.60;;;;;;10458809;28;20854;-72
2023/03/25 01:13:01;;;;;;;1.70;1.27;;;13.10;37.60;;;;;;10464675;28;20228;-72
2023/03/25 01:18:04;;;;;;;2.13;1.20;;;13.10;38.00;;;;;;10457417;28;20229;-72
2023/03/25 01:23:08;;;;;;;1.40;1.30;;;13.00;37.70;;;;;;10454206;28;20240;-72
2023/03/25 01:28:12;;;;;;;1.60;1.30;;;13.00;37.70;;;;;;10453793;28;20224;-72
2023/03/25 01:33:16;;;;;;;1.40;1.20;;;13.00;37.90;;;;;;10452656;28;20476;-72
2023/03/25 01:38:20;;;;;;;1.57;1.20;;;13.00;37.70;;;;;;10452379;28;20236;-72
2023/03/25 01:43:24;;;;;;;2.27;1.40;;;13.00;37.80;;;;;;10455805;28;20301;-72
2023/03/25 01:48:31;;;;;;;1.53;1.20;;;13.00;37.90;;;;;;10457860;28;20766;-71
2023/03/25 01:53:35;;;;;;;1.50;1.40;;;13.00;37.90;;;;;;10452474;28;20623;-72
2023/03/25 01:58:41;;;;;;;1.33;1.23;;;12.90;37.60;;;;;;10448720;28;20236;-72
2023/03/25 02:03:49;;;;;;;1.70;1.20;;;12.90;37.90;;;;;;10455195;28;20250;-72
2023/03/25 02:08:54;;;;;;;1.97;1.27;;;12.90;37.60;;;;;;10453477;28;20532;-72
2023/03/25 02:14:03;;;;;;;1.30;1.20;;;12.90;37.70;;;;;;10454752;28;20240;-71
2023/03/25 02:19:45;;;;;;;1.30;1.20;;;12.90;37.80;;;;;;10450982;28;20231;-73
2023/03/25 02:25:10;;;;;;;1.93;1.20;;;12.80;37.70;;;;;;10447719;28;20231;-71
2023/03/25 02:30:39;;;;;;;2.90;1.50;;;12.80;37.80;;;;;;10453057;28;20228;-71
2023/03/25 02:35:57;;;;;;;1.63;1.10;;;12.80;37.80;;;;;;10452132;28;20240;-72
2023/03/25 02:41:08;;;;;;;1.60;1.00;;;12.80;37.90;;;;;;10454671;28;20273;-72
2023/03/25 02:46:16;;;;;;;2.50;1.10;;;12.80;37.80;;;;;;10444769;28;20239;-72
2023/03/25 02:51:25;;;;;;;1.90;1.10;;;12.80;37.50;;;;;;10445380;28;20228;-72
2023/03/25 02:56:31;;;;;;;3.13;1.00;;;12.80;37.50;;;;;;10445258;28;20662;-72
2023/03/25 03:01:36;;;;;;;0.97;0.90;;;12.90;37.30;;;;;;10448465;28;20277;-72
2023/03/25 03:06:42;;;;;;;1.20;1.03;;;12.90;37.20;;;;;;10445524;28;20224;-72
2023/03/25 03:11:58;;;;;;;1.07;0.90;;;13.00;37.10;;;;;;10446722;28;20247;-72
2023/03/25 03:17:12;;;;;;;1.20;0.97;;;13.00;37.00;;;;;;10454980;28;20228;-71
2023/03/25 03:22:33;;;;;;;1.20;1.10;;;13.00;36.90;;;;;;10452925;28;20242;-71
2023/03/25 03:27:45;;;;;;;2.03;0.90;;;13.00;36.90;;;;;;10451264;28;20725;-72
2023/03/25 03:32:53;;;;;;;1.00;0.97;;;13.00;36.90;;;;;;10446064;28;20237;-72
2023/03/25 03:38:00;;;;;;;1.00;0.90;;;13.00;36.70;;;;;;10451227;28;20229;-72
2023/03/25 03:43:09;;;;;;;1.30;0.90;;;13.00;36.50;;;;;;10455872;28;20224;-72
2023/03/25 03:48:15;;;;;;;1.00;0.80;;;12.90;36.40;;;;;;10461305;28;20708;-72
2023/03/25 03:53:23;;;;;;;1.00;0.90;;;12.80;36.30;;;;;;10454363;28;20596;-72
2023/03/25 03:58:33;;;;;;;1.10;0.83;;;12.80;36.50;;;;;;10460637;28;20231;-71
2023/03/25 04:03:41;;;;;;;0.87;0.80;;;12.60;36.50;;;;;;10456327;28;20735;-71
2023/03/25 04:08:57;;;;;;;1.63;0.87;;;12.60;36.60;;;;;;10463426;28;20238;-71
2023/03/25 04:14:03;;;;;;;1.17;0.90;;;12.60;37.00;;;;;;10459709;28;20228;-77
2023/03/25 04:19:08;;;;;;;1.73;0.93;;;12.50;37.10;;;;;;10466961;28;20684;-78
2023/03/25 04:24:15;;;;;;;1.67;0.93;;;12.40;37.20;;;;;;10463439;28;20228;-77
2023/03/25 04:29:19;;;;;;;1.53;1.03;;;12.40;37.50;;;;;;10462921;28;20231;-78
2023/03/25 04:34:23;;;;;;;1.07;0.80;;;12.30;38.00;;;;;;10469976;28;20232;-78
2023/03/25 04:39:28;;;;;;;1.97;1.00;;;12.20;37.60;;;;;;10437241;28;20228;-77
2023/03/25 04:44:37;;;;;;;1.17;0.80;;;12.10;37.50;;;;;;10471700;28;20229;-78
2023/03/25 04:49:43;;;;;;;2.03;0.90;;;12.00;38.00;;;;;;10463675;28;20232;-77
2023/03/25 04:54:47;;;;;;;2.37;0.90;;;11.90;38.00;;;;;;10462098;28;20234;-77
2023/03/25 04:59:51;;;;;;;2.07;1.00;;;11.70;37.90;;;;;;10461121;28;20239;-77
2023/03/25 05:05:00;;;;;;;1.90;0.70;;;11.70;38.10;;;;;;10458812;28;20228;-77
2023/03/25 05:10:08;;;;;;;1.70;0.80;;;11.70;38.10;;;;;;10466603;28;20567;-77
2023/03/25 05:15:13;;;;;;;1.13;0.80;;;11.70;38.30;;;;;;10463501;28;20524;-76
2023/03/25 05:20:16;;;;;;;2.33;1.07;;;11.70;38.70;;;;;;10455422;28;20224;-76
2023/03/25 05:25:20;;;;;;;1.97;0.90;;;11.70;38.40;;;;;;10456099;28;20230;-75
2023/03/25 05:30:31;;;;;;;1.73;0.80;;;11.70;38.50;;;;;;10458863;28;20627;-75
2023/03/25 05:35:34;;;;;;;0.70;0.70;;;11.60;38.80;;;;;;10453525;28;20318;-75
2023/03/25 05:40:37;;;;;;;2.40;0.83;;;11.60;38.70;;;;;;10450397;28;20688;-74
2023/03/25 05:45:43;;;;;;;1.63;0.90;;;11.50;38.80;;;;;;10452473;28;20700;-75
2023/03/25 05:50:47;;;;;;;1.27;0.90;;;11.40;39.50;;;;;;10454570;28;20228;-75
2023/03/25 05:55:50;;;;;;;1.17;0.83;;;11.30;39.20;;;;;;10450368;28;20240;-75
2023/03/25 06:00:56;;;;;;;2.27;0.77;;;11.20;39.40;;;;;;10457909;28;20275;-75
2023/03/25 06:05:59;;;;;;;1.00;0.87;;;11.20;39.80;;;;;;10458260;28;20224;-75
2023/03/25 06:11:02;;;;;;;1.93;1.00;;;11.20;39.40;;;;;;10460136;28;20962;-75
2023/03/25 06:16:08;;;;;;;1.93;1.20;;;11.30;39.60;;;;;;10450192;28;20236;-74
2023/03/25 06:21:12;;;;;;;2.77;1.30;;;11.30;40.20;;;;;;10454336;28;20549;-75
2023/03/25 06:26:15;;;;;;;1.30;1.00;;;11.30;39.80;;;;;;10456254;28;20231;-75
2023/03/25 06:31:25;;;;;;;1.57;1.10;;;11.30;39.90;;;;;;10454576;28;20224;-75
2023/03/25 06:36:29;;;;;;;3.03;1.40;;;11.30;40.40;;;;;;10452124;28;20255;-74
2023/03/25 06:41:34;;;;;;;2.97;1.40;;;11.30;39.90;;;;;;10455213;28;20219;-75
2023/03/25 06:46:39;;;;;;;2.37;1.17;;;11.40;39.90;;;;;;10457281;28;20225;-75
2023/03/25 06:51:42;;;;;;;2.10;1.37;;;11.40;40.10;;;;;;10463271;28;20387;-75
2023/03/25 06:56:46;;;;;;;1.70;1.17;;;11.50;39.90;;;;;;10459802;28;20741;-75
2023/03/25 07:01:50;;;;;;;2.60;1.10;;;11.50;39.90;;;;;;10458891;28;20239;-74
2023/03/25 07:06:54;;;;;;;1.67;1.03;;;11.60;40.00;;;;;;10463912;28;20224;-75
2023/03/25 07:12:00;;;;;;;2.13;1.23;;;11.70;39.80;;;;;;10458833;28;20229;-75
2023/03/25 07:17:05;;;;;;;1.30;1.03;;;11.80;39.80;;;;;;10458935;28;20229;-75
2023/03/25 07:22:08;;;;;;;3.43;1.27;;;11.80;39.90;;;;;;10461910;28;20239;-77
2023/03/25 07:27:11;;;;;;;2.53;1.20;;;11.90;39.70;;;;;;10458730;28;20228;-76
2023/03/25 07:32:19;;;;;;;1.27;1.00;;;11.90;39.60;;;;;;10457527;28;20260;-75
2023/03/25 07:37:22;;;;;;;1.07;0.87;;;12.00;40.00;;;;;;10454552;28;20228;-76
2023/03/25 07:42:25;;;;;;;0.80;0.80;;;12.10;39.50;;;;;;10462155;28;20236;-76
2023/03/25 07:47:30;;;;;;;1.50;0.87;;;12.30;39.50;;;;;;10468787;28;20486;-81
2023/03/25 07:52:34;;;;;;;1.93;1.03;;;12.40;39.30;;;;;;10469692;28;20800;-78
2023/03/25 07:57:38;;;;;;;2.20;1.17;;;12.50;38.80;;;;;;10462481;28;20308;-75
2023/03/25 08:02:42;;;;;;;1.40;1.30;;;12.70;38.70;;;;;;10451711;28;20228;-75
2023/03/25 08:07:45;;;;;;;1.90;1.23;;;12.80;38.10;;;;;;10451166;28;20260;-75
2023/03/25 08:12:52;;;;;;;1.60;1.10;;;12.90;38.20;;;;;;10456162;28;20972;-75
2023/03/25 08:17:56;;;;;;;1.67;0.97;;;13.10;37.50;;;;;;10451569;28;20566;-74
2023/03/25 08:23:01;;;;;;;2.50;1.27;;;13.20;37.50;;;;;;10456999;28;20240;-75
2023/03/25 08:28:05;;;;;;;3.20;1.17;;;13.30;37.60;;;;;;10454988;28;20680;-75
2023/03/25 08:33:10;;;;;;;2.87;1.27;;;13.40;37.10;;;;;;10459359;28;20233;-75
2023/03/25 08:38:15;;;;;;;1.40;0.90;;;13.50;36.60;;;;;;10462688;28;20712;-76
2023/03/25 08:43:18;;;;;;;2.03;1.07;;;13.70;36.90;;;;;;10452969;28;20228;-76
2023/03/25 08:48:23;;;;;;;1.23;1.00;;;13.80;36.90;;;;;;10462240;28;20224;-77
2023/03/25 08:53:27;;;;;;;2.10;0.90;;;13.90;35.60;;;;;;10464366;28;20323;-74
2023/03/25 08:58:30;;;;;;;2.20;0.80;;;13.90;35.50;;;;;;10458712;28;20224;-74
2023/03/25 09:03:36;;;;;;;2.33;1.00;;;13.90;35.50;;;;;;10454416;28;20522;-77
2023/03/25 09:08:39;;;;;;;1.67;1.10;;;13.80;35.30;;;;;;10457044;28;20228;-75
2023/03/25 09:13:42;;;;;;;2.00;1.10;;;13.80;35.60;;;;;;10458452;28;20258;-75
2023/03/25 09:18:47;;;;;;;2.77;1.90;;;13.80;35.60;;;;;;10452729;28;20224;-75
2023/03/25 09:23:50;;;;;;;2.03;0.83;;;13.80;35.50;;;;;;10454540;28;20240;-76
2023/03/25 09:28:55;;;;;;;1.90;1.27;;;13.90;35.50;;;;;;10454658;28;20228;-76
2023/03/25 09:33:59;;;;;;;2.30;1.50;;;14.00;35.90;;;;;;10460227;28;20615;-75
2023/03/25 09:39:03;;;;;;;1.53;1.20;;;14.00;34.80;;;;;;10463111;28;20239;-75
2023/03/25 09:44:13;;;;;;;1.03;0.90;;;14.10;35.20;;;;;;10459932;28;20460;-76
2023/03/25 09:49:25;;;;;;;1.20;0.90;;;14.00;34.60;;;;;;10460227;28;20228;-79
2023/03/25 09:54:32;;;;;;;1.83;0.77;;;14.10;35.00;;;;;;10458165;28;20589;-77
2023/03/25 09:59:40;;;;;;;0.70;0.70;;;14.20;34.60;;;;;;10460371;28;20243;-77
2023/03/25 10:05:15;;;;;;;1.23;0.87;;;14.30;34.30;;;;;;10462899;28;20228;-77
2023/03/25 10:10:26;;;;;;;1.30;0.77;;;14.30;33.90;;;;;;10461626;28;20229;-77
2023/03/25 10:15:36;;;;;;;0.70;0.70;;;14.30;34.60;;;;;;10462198;28;20239;-76
2023/03/25 10:20:48;;;;;;;0.77;0.77;;;14.40;34.30;;;;;;10466830;28;20224;-78
2023/03/25 10:25:57;;;;;;;1.33;1.23;;;14.50;33.90;;;;;;10470856;28;20232;-76
2023/03/25 10:31:02;;;;;;;0.77;0.77;;;14.60;33.80;;;;;;10472853;28;20228;-77
2023/03/25 10:36:12;;;;;;;2.80;0.80;;;14.60;33.70;;;;;;10469351;28;20228;-76
2023/03/25 10:41:24;;;;;;;0.67;0.67;;;14.70;33.10;;;;;;10469364;28;20229;-76
2023/03/25 10:46:31;;;;;;;2.97;0.80;;;14.70;33.30;;;;;;10467121;28;20647;-76
2023/03/25 10:51:36;;;;;;;1.47;0.70;;;14.70;32.90;;;;;;10460874;28;20223;-76
2023/03/25 10:56:43;;;;;;;1.50;0.83;;;14.70;33.40;;;;;;10462002;28;20897;-77
2023/03/25 11:01:47;;;;;;;1.37;0.83;;;14.70;33.00;;;;;;10458650;28;20559;-75
2023/03/25 11:06:57;;;;;;;1.00;0.60;;;14.60;33.20;;;;;;10459890;28;20229;-78
2023/03/25 11:12:01;;;;;;;1.40;0.90;;;14.60;33.30;;;;;;10458180;28;20227;-74
2023/03/25 11:17:11;;;;;;;0.90;0.90;;;14.60;34.20;;;;;;10448633;28;20260;-74
2023/03/25 11:22:22;;;;;;;1.53;0.80;;;14.70;33.70;;;;;;10459058;28;20224;-74
2023/03/25 11:27:29;;;;;;;1.10;0.80;;;14.80;33.70;;;;;;10464311;28;20628;-74
2023/03/25 11:32:34;;;;;;;0.70;0.70;;;14.90;33.60;;;;;;10454730;28;20221;-74
2023/03/25 11:37:45;;;;;;;1.00;0.80;;;15.00;33.10;;;;;;10459739;28;20312;-74
2023/03/25 11:42:53;;;;;;;0.60;0.60;;;15.00;32.10;;;;;;10446093;28;20646;-74
2023/03/25 11:48:00;;;;;;;2.67;0.90;;;15.00;32.10;;;;;;10453643;28;20225;-76
2023/03/25 11:53:07;;;;;;;1.37;0.70;;;15.00;32.10;;;;;;10457115;28;20250;-76
2023/03/25 11:58:16;;;;;;;1.30;0.70;;;15.10;32.20;;;;;;10456990;28;20220;-76
2023/03/25 12:03:21;;;;;;;0.80;0.80;;;15.10;32.20;;;;;;10458522;28;20675;-74
2023/03/25 12:08:29;;;;;;;1.30;0.70;;;15.10;32.70;;;;;;10451692;28;20232;-73
2023/03/25 12:13:42;;;;;;;0.67;0.67;;;15.00;31.70;;;;;;10453799;28;20232;-74
2023/03/25 12:19:00;;;;;;;0.70;0.70;;;14.90;32.00;;;;;;10450255;28;20221;-68
2023/03/25 12:24:27;;;;;;;0.90;0.80;;;14.80;31.90;;;;;;10448538;28;20232;-72
2023/03/25 12:29:39;;;;;;;0.77;0.77;;;14.80;32.70;;;;;;10450531;28;20234;-75
2023/03/25 12:34:56;;;;;;;0.40;0.40;;;14.70;34.10;;;;;;10453999;28;20337;-74
2023/03/25 12:40:20;;;;;;;0.70;0.70;;;14.70;33.40;;;;;;10454033;28;20232;-75
2023/03/25 12:45:53;;;;;;;0.70;0.60;;;14.60;33.20;;;;;;10452395;28;20643;-76
2023/03/25 12:51:04;;;;;;;0.67;0.60;;;14.60;33.20;;;;;;10452777;28;20229;-75
2023/03/25 12:56:24;;;;;;;0.50;0.50;;;14.50;33.00;;;;;;10457970;28;20217;-74
2023/03/25 13:01:36;;;;;;;0.83;0.70;;;14.40;33.30;;;;;;10458540;28;20573;-74
2023/03/25 13:06:45;;;;;;;1.20;0.80;;;14.20;34.50;;;;;;10451022;28;20743;-73
2023/03/25 13:11:54;;;;;;;2.83;0.80;;;13.80;35.10;;;;;;10457661;28;20243;-75
2023/03/25 13:17:01;;;;;;;0.60;0.60;;;13.40;35.40;;;;;;10455128;28;20224;-74
2023/03/25 13:22:14;;;;;;;0.83;0.70;;;13.10;35.60;;;;;;10455040;28;20216;-75
2023/03/25 13:27:19;;;;;;;0.60;0.60;;;12.90;37.00;;;;;;10454926;28;20424;-75
2023/03/25 13:32:28;;;;;;;0.83;0.60;;;12.80;37.50;;;;;;10445986;28;20752;-75
2023/03/25 13:37:36;;;;;;;1.50;0.70;;;12.80;38.00;;;;;;10453545;28;20733;-72
2023/03/25 13:42:48;;;;;;;0.50;0.50;;;13.00;38.10;;;;;;10452220;28;20230;-72
2023/03/25 13:47:58;;;;;;;0.50;0.50;;;13.20;38.10;;;;;;10444144;28;20728;-72
2023/03/25 13:53:05;;;;;;;0.60;0.60;;;13.40;37.40;;;;;;10444981;28;20965;-72
2023/03/25 13:58:26;;;;;;;0.60;0.60;;;13.60;37.00;;;;;;10444466;28;20236;-72
2023/03/25 14:03:58;;;;;;;1.00;0.73;;;13.80;36.80;;;;;;10445870;28;20330;-74
2023/03/25 14:09:31;;;;;;;1.00;0.90;;;13.90;37.30;;;;;;10446959;28;20220;-74
2023/03/25 14:14:38;;;;;;;0.70;0.70;;;14.00;36.40;;;;;;10443149;28;20728;-74
2023/03/25 14:19:48;;;;;;;1.60;0.63;;;14.00;36.30;;;;;;10445683;28;20358;-74
2023/03/25 14:24:52;;;;;;;0.70;0.70;;;14.20;36.50;;;;;;10442985;28;20461;-74
2023/03/25 14:29:59;;;;;;;0.73;0.67;;;14.30;36.50;;;;;;10441338;28;20524;-72
2023/03/25 14:35:46;;;;;;;0.70;0.70;;;14.40;35.70;;;;;;10451353;28;20220;-72
2023/03/25 14:40:57;;;;;;;1.33;0.80;;;14.60;35.40;;;;;;10439205;28;20627;-72
2023/03/25 14:46:18;;;;;;;0.60;0.60;;;14.80;35.80;;;;;;10448710;28;20335;-72
2023/03/25 14:51:44;;;;;;;0.60;0.60;;;15.00;35.60;;;;;;10453025;28;20242;-72
2023/03/25 14:56:54;;;;;;;0.80;0.60;;;15.10;33.40;;;;;;10453506;28;20234;-74
2023/03/25 15:02:05;;;;;;;1.17;0.63;;;15.10;32.60;;;;;;10447169;28;20574;-74
2023/03/25 15:07:13;;;;;;;1.00;0.60;;;15.10;32.60;;;;;;10456281;28;20260;-73
2023/03/25 15:12:19;;;;;;;1.17;0.70;;;15.00;33.80;;;;;;10459839;28;20228;-75
2023/03/25 15:17:50;;;;;;;1.03;0.60;;;14.60;33.70;;;;;;10462445;28;20228;-74
2023/03/25 15:23:24;;;;;;;0.77;0.70;;;14.10;34.60;;;;;;10413542;28;20240;-74
2023/03/25 15:28:48;;;;;;;1.77;0.70;;;13.80;35.40;;;;;;10462622;28;20274;-74
2023/03/25 15:34:09;;;;;;;1.13;0.60;;;13.70;36.10;;;;;;10453242;28;20413;-73
2023/03/25 15:39:30;;;;;;;0.60;0.60;;;13.60;36.00;;;;;;10460829;28;20694;-75
2023/03/25 15:44:59;;;;;;;0.93;0.60;;;13.70;36.40;;;;;;10460197;28;20232;-74
2023/03/25 15:50:26;;;;;;;1.33;0.80;;;13.70;36.40;;;;;;10458612;28;20224;-75
2023/03/25 15:55:35;;;;;;;1.20;1.10;;;13.70;36.70;;;;;;10456061;28;20232;-75
2023/03/25 16:00:45;;;;;;;1.23;0.70;;;13.70;36.10;;;;;;10465688;28;20224;-74
2023/03/25 16:05:55;;;;;;;1.47;0.67;;;13.70;36.00;;;;;;10461428;28;20224;-75
2023/03/25 16:11:15;;;;;;;2.03;1.07;;;13.70;36.20;;;;;;10459927;28;20235;-75
2023/03/25 16:16:19;;;;;;;1.83;0.80;;;13.70;36.90;;;;;;10450489;28;20720;-75
2023/03/25 16:21:27;;;;;;;1.97;0.97;;;13.70;35.80;;;;;;10451592;28;20263;-75
2023/03/25 16:26:36;;;;;;;0.60;0.60;;;13.80;35.60;;;;;;10455158;28;20235;-75
2023/03/25 16:31:42;;;;;;;0.93;0.70;;;13.90;35.10;;;;;;10455983;28;20452;-74
2023/03/25 16:36:48;;;;;;;2.67;0.83;;;13.90;35.30;;;;;;10460909;28;20585;-74
2023/03/25 16:41:59;;;;;;;2.20;0.97;;;14.00;34.80;;;;;;10453024;28;20229;-73
2023/03/25 16:47:03;;;;;;;1.57;1.17;;;14.00;34.80;;;;;;10459930;28;20232;-74
2023/03/25 16:52:13;;;;;;;1.23;0.93;;;14.00;34.70;;;;;;10458765;28;20988;-74
2023/03/25 16:57:19;;;;;;;0.93;0.77;;;14.00;34.40;;;;;;10456979;28;20221;-74
2023/03/25 17:02:26;;;;;;;0.90;0.90;;;13.90;34.60;;;;;;10455879;28;20241;-76
2023/03/25 17:07:31;;;;;;;1.93;0.80;;;13.90;34.50;;;;;;10460805;28;20232;-74
2023/03/25 17:12:35;;;;;;;1.63;0.90;;;13.90;34.30;;;;;;10458156;28;20232;-76
2023/03/25 17:17:48;;;;;;;1.43;1.33;;;13.90;34.20;;;;;;10448338;28;20407;-76
2023/03/25 17:23:06;;;;;;;2.03;1.40;;;13.80;34.00;;;;;;10457544;28;20228;-77
2023/03/25 17:28:27;;;;;;;3.43;3.00;;;13.80;33.70;;;;;;10460084;28;20311;-69
2023/03/25 17:33:34;;;;;;;2.43;1.60;;;13.80;33.70;;;;;;10452450;28;20330;-76
2023/03/25 17:38:44;;;;;;;1.83;1.50;;;13.70;34.10;;;;;;10464794;28;20299;-75
2023/03/25 17:43:50;;;;;;;2.13;1.93;;;13.60;33.90;;;;;;10467780;28;20306;-75
2023/03/25 17:48:56;;;;;;;2.43;1.70;;;13.50;34.20;;;;;;10471495;28;20915;-75
2023/03/25 17:54:00;;;;;;;1.30;1.20;;;13.30;34.20;;;;;;10465952;28;20231;-75
2023/03/25 17:59:07;;;;;;;1.57;1.27;;;13.20;34.30;;;;;;10465129;28;20221;-76
2023/03/25 18:04:11;;;;;;;1.10;1.10;;;13.10;34.40;;;;;;10462782;28;20220;-76
2023/03/25 18:09:22;;;;;;;1.73;1.20;;;13.00;34.60;;;;;;10465436;28;20213;-76
2023/03/25 18:14:26;;;;;;;1.10;1.10;;;12.90;34.80;;;;;;10468738;28;20227;-76
2023/03/25 18:19:30;;;;;;;2.00;1.20;;;12.70;34.90;;;;;;10466475;28;20238;-75
2023/03/25 18:24:35;;;;;;;1.00;0.90;;;12.60;35.10;;;;;;10465623;22;20308;-76
2023/03/25 18:29:39;;;;;;;2.40;0.80;;;12.60;35.30;;;;;;10443499;28;20871;-76
2023/03/25 18:34:43;;;;;;;1.40;1.10;;;12.50;35.40;;;;;;10443061;28;20611;-75
2023/03/25 18:39:48;;;;;;;1.77;1.10;;;12.40;35.50;;;;;;10442471;28;20229;-75
2023/03/25 18:44:51;;;;;;;1.60;1.10;;;12.40;35.70;;;;;;10449479;28;20225;-76
2023/03/25 18:49:55;;;;;;;1.07;0.80;;;12.30;35.70;;;;;;10451512;28;20221;-76
2023/03/25 18:54:59;;;;;;;0.90;0.90;;;12.30;35.80;;;;;;10449768;28;20400;-76
2023/03/25 19:00:08;;;;;;;1.20;1.10;;;12.20;35.60;;;;;;10408746;28;20234;-75
2023/03/25 19:05:12;;;;;;;1.17;1.07;;;12.30;35.70;;;;;;10435063;28;20237;-76
2023/03/25 19:10:18;;;;;;;1.63;1.13;;;12.20;35.60;;;;;;10450194;28;20233;-75
2023/03/25 19:15:25;;;;;;;2.17;1.27;;;12.20;35.50;;;;;;10445723;28;20244;-76
2023/03/25 19:20:32;;;;;;;1.50;0.90;;;12.20;35.50;;;;;;10447305;28;20247;-76
2023/03/25 19:25:37;;;;;;;1.10;0.90;;;12.20;35.50;;;;;;10435746;28;20324;-76
2023/03/25 19:30:42;;;;;;;3.47;3.00;;;12.10;35.40;;;;;;10437930;28;20236;-76
2023/03/25 19:35:50;;;;;;;1.40;1.30;;;12.10;35.40;;;;;;10438339;28;20255;-76
2023/03/25 19:41:03;;;;;;;1.43;1.30;;;12.10;35.70;;;;;;10430994;28;20220;-76
2023/03/25 19:46:07;;;;;;;4.47;3.93;;;12.10;35.70;;;;;;10420875;28;20232;-76
2023/03/25 19:51:10;;;;;;;1.63;1.50;;;12.00;35.40;;;;;;10425729;28;20300;-76
2023/03/25 19:56:15;;;;;;;2.00;1.90;;;12.00;35.60;;;;;;10436192;28;20270;-76
2023/03/25 20:01:20;;;;;;;1.33;1.20;;;12.00;35.60;;;;;;10432425;28;20575;-75
2023/03/25 20:06:24;;;;;;;1.57;1.03;;;11.90;35.60;;;;;;10438094;28;20658;-76
2023/03/25 20:11:28;;;;;;;1.67;1.10;;;11.90;35.60;;;;;;10431423;28;20594;-76
2023/03/25 20:16:33;;;;;;;2.07;1.10;;;11.80;36.00;;;;;;10444100;28;20229;-76
2023/03/25 20:21:37;;;;;;;1.27;1.17;;;11.80;36.00;;;;;;10437230;28;20233;-76
2023/03/25 20:26:41;;;;;;;1.90;1.50;;;11.80;36.00;;;;;;10438155;28;20279;-76
2023/03/25 20:31:44;;;;;;;1.67;1.10;;;11.80;36.30;;;;;;10437620;28;20225;-76
2023/03/25 20:36:48;;;;;;;2.87;2.20;;;11.80;36.20;;;;;;10432253;28;20225;-76
2023/03/25 20:41:53;;;;;;;1.77;1.10;;;11.80;36.20;;;;;;10432179;28;20240;-76
2023/03/25 20:46:56;;;;;;;1.10;1.00;;;11.80;36.50;;;;;;10436195;28;20229;-76
2023/03/25 20:52:00;;;;;;;1.07;0.93;;;11.80;36.30;;;;;;10436338;28;20332;-76
2023/03/25 20:57:06;;;;;;;1.97;0.90;;;11.80;36.40;;;;;;10427921;28;20236;-75
2023/03/25 21:02:10;;;;;;;2.00;1.17;;;11.80;36.60;;;;;;10428393;28;20217;-75
2023/03/25 21:07:13;;;;;;;1.17;0.90;;;11.80;36.50;;;;;;10433917;28;20232;-75
2023/03/25 21:12:18;;;;;;;1.17;1.00;;;11.90;36.40;;;;;;10421145;28;20280;-76
2023/03/25 21:17:22;;;;;;;1.40;0.87;;;11.90;36.60;;;;;;10419155;28;20240;-76
2023/03/25 21:22:26;;;;;;;1.23;1.10;;;11.90;36.40;;;;;;10420145;28;20312;-76
2023/03/25 21:27:31;;;;;;;1.20;1.00;;;12.00;36.30;;;;;;10415260;28;20240;-76
2023/03/25 21:32:42;;;;;;;2.10;1.30;;;12.00;36.30;;;;;;10415817;28;20228;-75
2023/03/25 21:37:45;;;;;;;3.87;1.10;;;12.10;36.30;;;;;;10413646;28;20319;-75
2023/03/25 21:42:50;;;;;;;1.93;1.30;;;12.10;37.00;;;;;;10422890;28;20600;-75
2023/03/25 21:47:53;;;;;;;1.10;1.00;;;12.10;36.30;;;;;;10417385;28;20237;-75
2023/03/25 21:53:02;;;;;;;2.60;1.00;;;12.10;36.10;;;;;;10418520;28;20307;-75
2023/03/25 21:58:09;;;;;;;1.90;0.90;;;12.10;36.00;;;;;;10415451;28;20237;-76
2023/03/25 22:03:15;;;;;;;1.63;0.90;;;12.10;35.90;;;;;;10413307;28;20621;-76
2023/03/25 22:08:19;;;;;;;2.03;0.93;;;12.10;35.70;;;;;;10418631;28;20236;-76
2023/03/25 22:13:23;;;;;;;1.80;0.90;;;12.10;35.70;;;;;;10418058;28;20233;-76
2023/03/25 22:18:27;;;;;;;2.10;0.90;;;12.10;35.70;;;;;;10423636;28;20224;-75
2023/03/25 22:23:30;;;;;;;2.67;1.00;;;12.10;35.80;;;;;;10427036;28;20224;-75
2023/03/25 22:28:35;;;;;;;2.50;0.80;;;12.20;35.80;;;;;;10430884;28;20256;-76
2023/03/25 22:33:39;;;;;;;1.07;0.90;;;12.20;35.80;;;;;;10428502;28;20231;-76
2023/03/25 22:38:44;;;;;;;1.63;0.80;;;12.20;35.80;;;;;;10432228;28;20224;-76
2023/03/25 22:43:49;;;;;;;2.10;0.90;;;12.20;35.80;;;;;;10432241;28;20239;-76
2023/03/25 22:48:52;;;;;;;1.53;1.03;;;12.20;35.80;;;;;;10435004;28;20227;-76
2023/03/25 22:53:55;;;;;;;2.03;1.00;;;12.20;35.80;;;;;;10426337;28;20236;-76
2023/03/25 22:59:00;;;;;;;1.17;0.97;;;12.20;35.80;;;;;;10428829;28;20220;-76
2023/03/25 23:04:04;;;;;;;1.90;1.10;;;12.10;35.70;;;;;;10421369;28;20221;-75
2023/03/25 23:09:09;;;;;;;2.10;1.30;;;12.10;35.80;;;;;;10425464;28;20800;-76
2023/03/25 23:14:14;;;;;;;2.57;1.20;;;12.10;35.90;;;;;;10422503;28;20228;-76
2023/03/25 23:19:17;;;;;;;1.90;1.70;;;12.00;35.90;;;;;;10421216;28;20713;-75
2023/03/25 23:24:21;;;;;;;2.30;2.10;;;12.00;36.00;;;;;;10418050;28;20236;-75
2023/03/25 23:29:25;;;;;;;1.40;1.30;;;12.00;36.00;;;;;;10445432;28;20233;-73
2023/03/25 23:34:28;;;;;;;2.03;1.00;;;12.00;36.10;;;;;;10433312;28;20233;-74
2023/03/25 23:39:32;;;;;;;2.00;1.33;;;11.90;36.10;;;;;;10441996;28;20263;-73
2023/03/25 23:44:36;;;;;;;1.30;0.93;;;11.80;36.10;;;;;;10430833;28;20274;-73
2023/03/25 23:49:42;;;;;;;1.33;0.93;;;11.80;36.40;;;;;;10434741;28;20633;-73
2023/03/25 23:54:47;;;;;;;0.90;0.80;;;11.80;36.30;;;;;;10442762;28;20237;-73
2023/03/25 23:59:52;;;;;;;2.77;1.50;;;11.70;36.50;;;;;;10437155;28;20232;-73
